Extended Streamflow Prediction
Issued by NWS Lower Mississippi RFC

Home | Current Version | Previous Version | Text Only | Print | Product List | Glossary On
Versions: 1 2 3 4 5 6 7 8 9 10 11 12 13 14 15 16 17 18 19 20 21 22 23 24 25 26 27 28 29 30
000
FGUS64 KORN 291831
ESPORN

EXTENDED STREAMFLOW PREDICTION
NATIONAL WEATHER SERVICE RIVER FORECAST CENTER, SLIDELL, LA
0130 PM CDT WED JUL 29 2015

   DATE   CPGM7 CIRI2 NMDM7 TPTT1 CRTM7 OSGA4 MEMT1 TRPM6 HEEA4
07-29-15   32.8  37.1  27.5  30.4  28.9  26.2  28.3  41.2  39.3
07-30-15   32.9  36.0  26.3  28.9  27.3  24.2  26.4  39.9  38.5
07-31-15   32.8  35.3  25.4  28.0  26.2  22.6  24.7  38.2  37.3
08-01-15   32.2  34.5  24.8  27.3  25.5  21.6  23.4  36.7  35.6
08-02-15   31.3  33.7  24.1  26.7  24.9  20.8  22.6  35.7  34.2
08-03-15   30.5  32.7  23.1  25.8  24.2  20.1  21.6  34.6  33.1
08-04-15   29.9  31.8  22.2  25.0  23.3  19.3  20.6  33.6  32.0
08-05-15   29.4  30.9  21.4  24.2  22.5  18.5  19.8  32.6  31.0
08-06-15   28.4  30.0  20.5  23.4  21.8  17.6  18.9  31.7  30.1
08-07-15   26.9  28.9  19.6  22.5  21.0  16.8  18.1  30.8  29.2
08-08-15   25.1  27.7  18.5  21.6  20.2  15.9  17.2  30.0  28.4
08-09-15   23.5  26.1  17.1  20.4  19.2  15.0  16.4  29.1  27.6
08-10-15   22.4  25.0  16.0  19.2  17.9  14.2  15.6  28.5  26.8
08-11-15   21.5  24.1  15.1  18.1  17.0  13.3  15.0  27.8  26.2
08-12-15   20.8  23.3  14.3  17.4  16.1  12.7  14.3  27.2  25.6
08-13-15   20.1  22.6  13.8  16.8  15.5  12.2  13.7  26.6  25.0
08-14-15   19.8  22.1  13.2  16.3  14.9  11.8  13.3  26.1  24.4
08-15-15   19.4  21.8  12.8  15.8  14.6  11.5  13.0  25.7  23.9
08-16-15   19.1  21.3  12.5  15.5  14.3  11.2  12.6  25.4  23.6
08-17-15   18.8  21.1  12.2  15.2  14.0  11.0  12.4  25.0  23.3
08-18-15   18.5  20.8  11.8  14.9  13.7  10.7  12.1  24.7  22.9
08-19-15   18.3  20.5  11.5  14.6  13.4  10.4  11.8  24.5  22.6
08-20-15   18.1  20.2  11.2  14.3  13.2  10.2  11.6  24.3  22.4
08-21-15   17.8  19.9  11.0  14.0  12.9  10.0  11.3  24.1  22.2
08-22-15   17.6  19.7  10.8  13.8  12.7   9.9  11.2  23.9  22.1
08-23-15   17.4  19.5  10.5  13.6  12.5   9.7  11.0  23.7  21.9
08-24-15   17.2  19.2  10.3  13.4  12.3   9.5  10.8  23.5  21.7
08-25-15   17.1  19.0  10.0  13.1  12.2   9.4  10.7  23.4  21.5

   DATE   ARSA4 GEEM6 VCKM6 NTZM6 RRLL1 BTRL1 DONL1 RRVL1 NORL1
07-29-15   37.1  49.7  45.8  52.7  55.9  38.8  27.9  21.5  15.4
07-30-15   36.6  49.2  45.5  52.6  55.8  38.8  27.9  21.5  15.4
07-31-15   36.0  48.7  45.2  52.3  55.8  38.7  27.9  21.5  15.4
08-01-15   35.1  48.1  44.8  52.0  55.5  38.6  27.8  21.4  15.4
08-02-15   34.0  47.3  44.3  51.6  55.2  38.3  27.7  21.4  15.3
08-03-15   32.7  46.3  43.6  51.1  54.9  38.0  27.5  21.3  15.3
08-04-15   31.4  45.0  42.6  50.6  54.5  37.7  27.2  21.1  15.2
08-05-15   30.2  43.7  41.6  49.6  53.9  37.3  26.9  20.9  15.1
08-06-15   29.0  42.6  40.4  48.6  53.0  36.5  26.6  20.7  14.9
08-07-15   28.3  41.5  39.3  47.5  52.0  35.6  26.0  20.4  14.7
08-08-15   27.5  40.7  38.2  46.5  51.0  34.6  25.3  19.9  14.4
08-09-15   26.8  40.0  37.1  45.4  50.0  33.7  24.6  19.5  13.9
08-10-15   26.0  39.3  36.4  44.4  49.0  32.7  23.9  19.0  13.5
08-11-15   25.2  38.5  35.6  43.7  48.0  31.7  23.3  18.5  13.1
08-12-15   24.6  37.8  34.8  42.9  47.3  31.0  22.6  18.0  12.7
08-13-15   24.0  37.2  34.2  42.2  46.6  30.3  22.2  17.7  12.3
08-14-15   23.5  36.6  33.6  41.6  46.0  29.6  21.7  17.3  12.0
08-15-15   22.9  36.1  32.9  41.0  45.4  29.0  21.3  17.0  11.7
08-16-15   22.4  35.6  32.4  40.4  44.8  28.5  20.9  16.7  11.4
08-17-15   22.1  35.1  31.9  39.9  44.2  28.0  20.5  16.5  11.1
08-18-15   21.8  34.8  31.5  39.4  43.8  27.4  20.1  16.2  10.9
08-19-15   21.5  34.5  31.1  39.0  43.3  27.0  19.8  15.9  10.6
08-20-15   21.2  34.2  30.9  38.7  42.9  26.6  19.5  15.7  10.4
08-21-15   21.0  33.9  30.6  38.4  42.6  26.3  19.2  15.5  10.3
08-22-15   20.8  33.7  30.3  38.2  42.4  26.0  19.0  15.3  10.1
08-23-15   20.6  33.5  30.1  37.9  42.1  25.8  18.9  15.2  10.0
08-24-15   20.5  33.3  30.0  37.7  41.9  25.5  18.7  15.1   9.9
08-25-15   20.3  33.2  29.8  37.6  41.7  25.3  18.5  15.0   9.8

NOTE: STAGE FORECASTS ARE BASED ON FUTURE RAINFALL COVERING
THE NEXT 24 HOURS.

END ORN


$$





USA.gov is the U.S. government's official web portal to all federal, state and local government web resources and services.